sensor_id;sensor_type;location;lat;lon;timestamp;temperature;humidity
21149;DHT22;10732;51.472;6.466;2023-09-30T00:00:07;11.80;99.90
21149;DHT22;10732;51.472;6.466;2023-09-30T00:02:34;11.80;99.90
21149;DHT22;10732;51.472;6.466;2023-09-30T00:04:59;11.80;99.90
21149;DHT22;10732;51.472;6.466;2023-09-30T00:07:25;11.80;99.90
21149;DHT22;10732;51.472;6.466;2023-09-30T00:09:52;11.80;99.90
21149;DHT22;10732;51.472;6.466;2023-09-30T00:12:18;11.80;99.90
21149;DHT22;10732;51.472;6.466;2023-09-30T00:14:44;11.80;99.90
21149;DHT22;10732;51.472;6.466;2023-09-30T00:17:09;11.80;99.90
21149;DHT22;10732;51.472;6.466;2023-09-30T00:19:35;11.80;99.90
21149;DHT22;10732;51.472;6.466;2023-09-30T00:22:01;11.70;99.90
21149;DHT22;10732;51.472;6.466;2023-09-30T00:24:26;11.80;99.90
21149;DHT22;10732;51.472;6.466;2023-09-30T00:26:52;11.70;99.90
21149;DHT22;10732;51.472;6.466;2023-09-30T00:29:17;11.70;99.90
21149;DHT22;10732;51.472;6.466;2023-09-30T00:31:43;11.70;99.90
21149;DHT22;10732;51.472;6.466;2023-09-30T00:34:09;11.70;99.90
21149;DHT22;10732;51.472;6.466;2023-09-30T00:36:35;11.70;99.90
21149;DHT22;10732;51.472;6.466;2023-09-30T00:39:01;11.70;99.90
21149;DHT22;10732;51.472;6.466;2023-09-30T00:41:26;11.70;99.90
21149;DHT22;10732;51.472;6.466;2023-09-30T00:43:52;11.70;99.90
21149;DHT22;10732;51.472;6.466;2023-09-30T00:46:29;11.70;99.90
21149;DHT22;10732;51.472;6.466;2023-09-30T00:48:56;11.70;99.90
21149;DHT22;10732;51.472;6.466;2023-09-30T00:51:22;11.70;99.90
21149;DHT22;10732;51.472;6.466;2023-09-30T00:53:52;11.70;99.90
21149;DHT22;10732;51.472;6.466;2023-09-30T00:56:19;11.70;99.90
21149;DHT22;10732;51.472;6.466;2023-09-30T00:58:47;11.70;99.90
21149;DHT22;10732;51.472;6.466;2023-09-30T01:01:14;11.80;99.90
21149;DHT22;10732;51.472;6.466;2023-09-30T01:03:41;11.80;99.90
21149;DHT22;10732;51.472;6.466;2023-09-30T01:06:06;11.80;99.90
21149;DHT22;10732;51.472;6.466;2023-09-30T01:08:32;11.80;99.90
21149;DHT22;10732;51.472;6.466;2023-09-30T01:10:58;11.80;99.90
21149;DHT22;10732;51.472;6.466;2023-09-30T01:13:32;11.80;99.90
21149;DHT22;10732;51.472;6.466;2023-09-30T01:15:57;11.80;99.90
21149;DHT22;10732;51.472;6.466;2023-09-30T01:18:23;11.80;99.90
21149;DHT22;10732;51.472;6.466;2023-09-30T01:20:50;11.80;99.90
21149;DHT22;10732;51.472;6.466;2023-09-30T01:23:17;11.80;99.90
21149;DHT22;10732;51.472;6.466;2023-09-30T01:25:44;11.70;99.90
21149;DHT22;10732;51.472;6.466;2023-09-30T01:28:10;11.80;99.90
21149;DHT22;10732;51.472;6.466;2023-09-30T01:30:35;11.80;99.90
21149;DHT22;10732;51.472;6.466;2023-09-30T01:33:01;11.80;99.90
21149;DHT22;10732;51.472;6.466;2023-09-30T01:35:26;11.80;99.90
21149;DHT22;10732;51.472;6.466;2023-09-30T01:37:52;11.70;99.90
21149;DHT22;10732;51.472;6.466;2023-09-30T01:40:19;11.80;99.90
21149;DHT22;10732;51.472;6.466;2023-09-30T01:42:44;11.70;99.90
21149;DHT22;10732;51.472;6.466;2023-09-30T01:45:10;11.70;99.90
21149;DHT22;10732;51.472;6.466;2023-09-30T01:47:36;11.70;99.90
21149;DHT22;10732;51.472;6.466;2023-09-30T01:50:01;11.70;99.90
21149;DHT22;10732;51.472;6.466;2023-09-30T01:52:27;11.60;99.90
21149;DHT22;10732;51.472;6.466;2023-09-30T01:54:52;11.50;99.90
21149;DHT22;10732;51.472;6.466;2023-09-30T01:57:19;11.50;99.90
21149;DHT22;10732;51.472;6.466;2023-09-30T01:59:44;11.40;99.90
21149;DHT22;10732;51.472;6.466;2023-09-30T02:02:10;11.40;99.90
21149;DHT22;10732;51.472;6.466;2023-09-30T02:04:36;11.40;99.90
21149;DHT22;10732;51.472;6.466;2023-09-30T02:07:02;11.30;99.90
21149;DHT22;10732;51.472;6.466;2023-09-30T02:09:27;11.30;99.90
21149;DHT22;10732;51.472;6.466;2023-09-30T02:11:53;11.30;99.90
21149;DHT22;10732;51.472;6.466;2023-09-30T02:14:20;11.20;99.90
21149;DHT22;10732;51.472;6.466;2023-09-30T02:16:46;11.20;99.90
21149;DHT22;10732;51.472;6.466;2023-09-30T02:19:11;11.20;99.90
21149;DHT22;10732;51.472;6.466;2023-09-30T02:21:38;11.10;99.90
21149;DHT22;10732;51.472;6.466;2023-09-30T02:24:04;11.00;99.90
21149;DHT22;10732;51.472;6.466;2023-09-30T02:26:32;11.00;99.90
21149;DHT22;10732;51.472;6.466;2023-09-30T02:28:58;11.00;99.90
21149;DHT22;10732;51.472;6.466;2023-09-30T02:31:24;11.00;99.90
21149;DHT22;10732;51.472;6.466;2023-09-30T02:33:49;11.00;99.90
21149;DHT22;10732;51.472;6.466;2023-09-30T02:36:15;11.00;99.90
21149;DHT22;10732;51.472;6.466;2023-09-30T02:38:41;10.90;99.90
21149;DHT22;10732;51.472;6.466;2023-09-30T02:41:07;10.90;99.90
21149;DHT22;10732;51.472;6.466;2023-09-30T02:43:33;10.90;99.90
21149;DHT22;10732;51.472;6.466;2023-09-30T02:45:59;10.80;99.90
21149;DHT22;10732;51.472;6.466;2023-09-30T02:48:24;10.80;99.90
21149;DHT22;10732;51.472;6.466;2023-09-30T02:50:50;10.80;99.90
21149;DHT22;10732;51.472;6.466;2023-09-30T02:53:16;10.80;99.90
21149;DHT22;10732;51.472;6.466;2023-09-30T02:55:41;10.80;99.90
21149;DHT22;10732;51.472;6.466;2023-09-30T02:58:08;10.80;99.90
21149;DHT22;10732;51.472;6.466;2023-09-30T03:00:34;10.80;99.90
21149;DHT22;10732;51.472;6.466;2023-09-30T03:03:01;10.90;99.90
21149;DHT22;10732;51.472;6.466;2023-09-30T03:05:27;10.90;99.90
21149;DHT22;10732;51.472;6.466;2023-09-30T03:07:55;10.90;99.90
21149;DHT22;10732;51.472;6.466;2023-09-30T03:10:21;10.80;99.90
21149;DHT22;10732;51.472;6.466;2023-09-30T03:12:49;10.80;99.90
21149;DHT22;10732;51.472;6.466;2023-09-30T03:15:16;10.80;99.90
21149;DHT22;10732;51.472;6.466;2023-09-30T03:17:41;10.80;99.90
21149;DHT22;10732;51.472;6.466;2023-09-30T03:20:08;10.80;99.90
21149;DHT22;10732;51.472;6.466;2023-09-30T03:22:36;10.70;99.90
21149;DHT22;10732;51.472;6.466;2023-09-30T03:25:02;10.70;99.90
21149;DHT22;10732;51.472;6.466;2023-09-30T03:27:27;10.80;99.90
21149;DHT22;10732;51.472;6.466;2023-09-30T03:29:53;10.80;99.90
21149;DHT22;10732;51.472;6.466;2023-09-30T03:32:18;10.80;99.90
21149;DHT22;10732;51.472;6.466;2023-09-30T03:34:44;10.90;99.90
21149;DHT22;10732;51.472;6.466;2023-09-30T03:37:11;10.90;99.90
21149;DHT22;10732;51.472;6.466;2023-09-30T03:39:37;10.90;99.90
21149;DHT22;10732;51.472;6.466;2023-09-30T03:42:03;11.00;99.90
21149;DHT22;10732;51.472;6.466;2023-09-30T03:44:29;11.00;99.90
21149;DHT22;10732;51.472;6.466;2023-09-30T03:46:54;11.00;99.90
21149;DHT22;10732;51.472;6.466;2023-09-30T03:49:20;11.10;99.90
21149;DHT22;10732;51.472;6.466;2023-09-30T03:51:46;11.10;99.90
21149;DHT22;10732;51.472;6.466;2023-09-30T03:54:12;11.00;99.90
21149;DHT22;10732;51.472;6.466;2023-09-30T03:56:38;11.00;99.90
21149;DHT22;10732;51.472;6.466;2023-09-30T03:59:06;10.90;99.90
21149;DHT22;10732;51.472;6.466;2023-09-30T04:01:34;10.90;99.90
21149;DHT22;10732;51.472;6.466;2023-09-30T04:03:59;10.80;99.90
21149;DHT22;10732;51.472;6.466;2023-09-30T04:06:25;10.80;99.90
21149;DHT22;10732;51.472;6.466;2023-09-30T04:08:51;10.80;99.90
21149;DHT22;10732;51.472;6.466;2023-09-30T04:11:16;10.70;99.90
21149;DHT22;10732;51.472;6.466;2023-09-30T04:13:46;10.80;99.90
21149;DHT22;10732;51.472;6.466;2023-09-30T04:16:12;10.70;99.90
21149;DHT22;10732;51.472;6.466;2023-09-30T04:18:38;10.70;99.90
21149;DHT22;10732;51.472;6.466;2023-09-30T04:21:06;10.70;99.90
21149;DHT22;10732;51.472;6.466;2023-09-30T04:23:33;10.60;99.90
21149;DHT22;10732;51.472;6.466;2023-09-30T04:25:59;10.60;99.90
21149;DHT22;10732;51.472;6.466;2023-09-30T04:28:24;10.60;99.90
21149;DHT22;10732;51.472;6.466;2023-09-30T04:30:50;10.50;99.90
21149;DHT22;10732;51.472;6.466;2023-09-30T04:33:16;10.50;99.90
21149;DHT22;10732;51.472;6.466;2023-09-30T04:35:45;10.50;99.90
21149;DHT22;10732;51.472;6.466;2023-09-30T04:38:11;10.40;99.90
21149;DHT22;10732;51.472;6.466;2023-09-30T04:40:36;10.50;99.90
21149;DHT22;10732;51.472;6.466;2023-09-30T04:43:03;10.50;99.90
21149;DHT22;10732;51.472;6.466;2023-09-30T04:45:28;10.50;99.90
21149;DHT22;10732;51.472;6.466;2023-09-30T04:47:54;10.50;99.90
21149;DHT22;10732;51.472;6.466;2023-09-30T04:50:23;10.50;99.90
21149;DHT22;10732;51.472;6.466;2023-09-30T04:52:50;10.50;99.90
21149;DHT22;10732;51.472;6.466;2023-09-30T04:55:16;10.40;99.90
21149;DHT22;10732;51.472;6.466;2023-09-30T04:57:44;10.50;99.90
21149;DHT22;10732;51.472;6.466;2023-09-30T05:00:12;10.50;99.90
21149;DHT22;10732;51.472;6.466;2023-09-30T05:02:39;10.60;99.90
21149;DHT22;10732;51.472;6.466;2023-09-30T05:05:05;10.60;99.90
21149;DHT22;10732;51.472;6.466;2023-09-30T05:07:32;10.60;99.90
21149;DHT22;10732;51.472;6.466;2023-09-30T05:09:57;10.60;99.90
21149;DHT22;10732;51.472;6.466;2023-09-30T05:12:25;10.60;99.90
21149;DHT22;10732;51.472;6.466;2023-09-30T05:14:51;10.50;99.90
21149;DHT22;10732;51.472;6.466;2023-09-30T05:17:16;10.50;99.90
21149;DHT22;10732;51.472;6.466;2023-09-30T05:19:42;10.40;99.90
21149;DHT22;10732;51.472;6.466;2023-09-30T05:22:07;10.40;99.90
21149;DHT22;10732;51.472;6.466;2023-09-30T05:24:33;10.50;99.90
21149;DHT22;10732;51.472;6.466;2023-09-30T05:27:00;10.50;99.90
21149;DHT22;10732;51.472;6.466;2023-09-30T05:29:26;10.40;99.90
21149;DHT22;10732;51.472;6.466;2023-09-30T05:31:52;10.40;99.90
21149;DHT22;10732;51.472;6.466;2023-09-30T05:34:19;10.40;99.90
21149;DHT22;10732;51.472;6.466;2023-09-30T05:36:44;10.40;99.90
21149;DHT22;10732;51.472;6.466;2023-09-30T05:39:10;10.50;99.90
21149;DHT22;10732;51.472;6.466;2023-09-30T05:41:36;10.60;99.90
21149;DHT22;10732;51.472;6.466;2023-09-30T05:44:03;10.60;99.90
21149;DHT22;10732;51.472;6.466;2023-09-30T05:46:30;10.60;99.90
21149;DHT22;10732;51.472;6.466;2023-09-30T05:48:56;10.70;99.90
21149;DHT22;10732;51.472;6.466;2023-09-30T05:51:22;10.70;99.90
21149;DHT22;10732;51.472;6.466;2023-09-30T05:53:47;10.80;99.90
21149;DHT22;10732;51.472;6.466;2023-09-30T05:56:13;10.80;99.90
21149;DHT22;10732;51.472;6.466;2023-09-30T05:58:41;10.80;99.90
21149;DHT22;10732;51.472;6.466;2023-09-30T06:01:10;10.90;99.90
21149;DHT22;10732;51.472;6.466;2023-09-30T06:03:40;10.90;99.90
21149;DHT22;10732;51.472;6.466;2023-09-30T06:06:13;10.90;99.90
21149;DHT22;10732;51.472;6.466;2023-09-30T06:08:39;11.00;99.90
21149;DHT22;10732;51.472;6.466;2023-09-30T06:11:04;11.10;99.90
21149;DHT22;10732;51.472;6.466;2023-09-30T06:13:32;11.10;99.90
21149;DHT22;10732;51.472;6.466;2023-09-30T06:15:58;11.20;99.90
21149;DHT22;10732;51.472;6.466;2023-09-30T06:18:24;11.30;99.90
21149;DHT22;10732;51.472;6.466;2023-09-30T06:20:49;11.40;99.90
21149;DHT22;10732;51.472;6.466;2023-09-30T06:23:16;11.50;99.90
21149;DHT22;10732;51.472;6.466;2023-09-30T06:25:42;11.70;99.90
21149;DHT22;10732;51.472;6.466;2023-09-30T06:28:08;11.80;99.90
21149;DHT22;10732;51.472;6.466;2023-09-30T06:30:34;11.90;99.90
21149;DHT22;10732;51.472;6.466;2023-09-30T06:33:00;12.00;99.90
21149;DHT22;10732;51.472;6.466;2023-09-30T06:35:27;12.10;99.90
21149;DHT22;10732;51.472;6.466;2023-09-30T06:37:52;12.20;99.90
21149;DHT22;10732;51.472;6.466;2023-09-30T06:40:18;12.20;99.90
21149;DHT22;10732;51.472;6.466;2023-09-30T06:42:44;12.20;99.90
21149;DHT22;10732;51.472;6.466;2023-09-30T06:45:10;12.30;99.90
21149;DHT22;10732;51.472;6.466;2023-09-30T06:47:36;12.40;99.90
21149;DHT22;10732;51.472;6.466;2023-09-30T06:50:04;12.50;99.90
21149;DHT22;10732;51.472;6.466;2023-09-30T06:52:36;12.60;99.90
21149;DHT22;10732;51.472;6.466;2023-09-30T06:55:03;12.40;99.90
21149;DHT22;10732;51.472;6.466;2023-09-30T06:57:35;12.40;99.90
21149;DHT22;10732;51.472;6.466;2023-09-30T07:00:12;12.50;99.90
21149;DHT22;10732;51.472;6.466;2023-09-30T07:02:39;12.60;99.90
21149;DHT22;10732;51.472;6.466;2023-09-30T07:05:09;12.70;99.90
21149;DHT22;10732;51.472;6.466;2023-09-30T07:07:35;12.80;99.90
21149;DHT22;10732;51.472;6.466;2023-09-30T07:10:01;12.90;99.90
21149;DHT22;10732;51.472;6.466;2023-09-30T07:12:26;13.00;99.90
21149;DHT22;10732;51.472;6.466;2023-09-30T07:14:53;13.00;99.90
21149;DHT22;10732;51.472;6.466;2023-09-30T07:17:18;13.10;99.90
21149;DHT22;10732;51.472;6.466;2023-09-30T07:19:44;13.20;99.90
21149;DHT22;10732;51.472;6.466;2023-09-30T07:22:09;13.50;99.90
21149;DHT22;10732;51.472;6.466;2023-09-30T07:24:35;14.40;99.90
21149;DHT22;10732;51.472;6.466;2023-09-30T07:27:00;15.60;99.90
21149;DHT22;10732;51.472;6.466;2023-09-30T07:29:26;16.50;99.90
21149;DHT22;10732;51.472;6.466;2023-09-30T07:31:51;17.50;99.90
21149;DHT22;10732;51.472;6.466;2023-09-30T07:34:17;17.10;99.90
21149;DHT22;10732;51.472;6.466;2023-09-30T07:36:42;16.80;99.90
21149;DHT22;10732;51.472;6.466;2023-09-30T07:39:08;17.60;99.90
21149;DHT22;10732;51.472;6.466;2023-09-30T07:41:37;18.30;99.90
21149;DHT22;10732;51.472;6.466;2023-09-30T07:44:02;18.70;99.90
21149;DHT22;10732;51.472;6.466;2023-09-30T07:46:28;18.80;1.00
21149;DHT22;10732;51.472;6.466;2023-09-30T07:48:54;19.30;99.90
21149;DHT22;10732;51.472;6.466;2023-09-30T07:51:20;19.60;1.00
21149;DHT22;10732;51.472;6.466;2023-09-30T07:53:46;20.10;1.00
21149;DHT22;10732;51.472;6.466;2023-09-30T07:56:11;19.30;98.70
21149;DHT22;10732;51.472;6.466;2023-09-30T07:58:37;19.30;1.00
21149;DHT22;10732;51.472;6.466;2023-09-30T08:01:02;19.40;99.90
21149;DHT22;10732;51.472;6.466;2023-09-30T08:03:28;20.40;1.00
21149;DHT22;10732;51.472;6.466;2023-09-30T08:05:53;20.20;89.20
21149;DHT22;10732;51.472;6.466;2023-09-30T08:08:19;20.40;99.90
21149;DHT22;10732;51.472;6.466;2023-09-30T08:10:44;20.40;99.90
21149;DHT22;10732;51.472;6.466;2023-09-30T08:13:10;20.60;99.90
21149;DHT22;10732;51.472;6.466;2023-09-30T08:15:35;20.50;99.90
21149;DHT22;10732;51.472;6.466;2023-09-30T08:18:03;20.10;1.00
21149;DHT22;10732;51.472;6.466;2023-09-30T08:20:29;20.00;1.00
21149;DHT22;10732;51.472;6.466;2023-09-30T08:22:55;20.00;1.00
21149;DHT22;10732;51.472;6.466;2023-09-30T08:25:21;19.50;99.90
21149;DHT22;10732;51.472;6.466;2023-09-30T08:27:46;20.00;1.00
21149;DHT22;10732;51.472;6.466;2023-09-30T08:30:15;21.20;99.90
21149;DHT22;10732;51.472;6.466;2023-09-30T08:32:41;21.60;1.00
21149;DHT22;10732;51.472;6.466;2023-09-30T08:35:07;21.40;1.00
21149;DHT22;10732;51.472;6.466;2023-09-30T08:37:32;23.30;1.00
21149;DHT22;10732;51.472;6.466;2023-09-30T08:39:59;24.90;1.00
21149;DHT22;10732;51.472;6.466;2023-09-30T08:42:26;26.70;1.00
21149;DHT22;10732;51.472;6.466;2023-09-30T08:44:58;27.40;99.90
21149;DHT22;10732;51.472;6.466;2023-09-30T08:47:26;27.60;1.00
21149;DHT22;10732;51.472;6.466;2023-09-30T08:49:54;27.90;1.00
21149;DHT22;10732;51.472;6.466;2023-09-30T08:52:23;27.30;1.00
21149;DHT22;10732;51.472;6.466;2023-09-30T08:54:48;26.50;1.00
21149;DHT22;10732;51.472;6.466;2023-09-30T08:57:17;26.30;1.00
21149;DHT22;10732;51.472;6.466;2023-09-30T08:59:44;25.70;99.90
21149;DHT22;10732;51.472;6.466;2023-09-30T09:02:11;27.30;1.00
21149;DHT22;10732;51.472;6.466;2023-09-30T09:04:37;26.30;1.00
21149;DHT22;10732;51.472;6.466;2023-09-30T09:07:02;22.00;99.90
21149;DHT22;10732;51.472;6.466;2023-09-30T09:09:28;21.50;99.90
21149;DHT22;10732;51.472;6.466;2023-09-30T09:11:54;21.50;99.90
21149;DHT22;10732;51.472;6.466;2023-09-30T09:14:21;21.90;1.00
21149;DHT22;10732;51.472;6.466;2023-09-30T09:17:01;23.10;1.00
21149;DHT22;10732;51.472;6.466;2023-09-30T09:19:26;22.80;1.00
21149;DHT22;10732;51.472;6.466;2023-09-30T09:21:58;23.80;99.90
21149;DHT22;10732;51.472;6.466;2023-09-30T09:24:34;23.80;99.90
21149;DHT22;10732;51.472;6.466;2023-09-30T09:27:07;23.50;1.00
21149;DHT22;10732;51.472;6.466;2023-09-30T09:29:34;23.80;1.00
21149;DHT22;10732;51.472;6.466;2023-09-30T09:32:14;22.80;1.00
21149;DHT22;10732;51.472;6.466;2023-09-30T09:34:41;23.30;1.00
21149;DHT22;10732;51.472;6.466;2023-09-30T09:37:19;25.00;84.00
21149;DHT22;10732;51.472;6.466;2023-09-30T09:39:57;25.60;1.00
21149;DHT22;10732;51.472;6.466;2023-09-30T09:44:55;26.10;1.00
21149;DHT22;10732;51.472;6.466;2023-09-30T09:47:21;24.20;99.90
21149;DHT22;10732;51.472;6.466;2023-09-30T09:49:48;22.70;99.90
21149;DHT22;10732;51.472;6.466;2023-09-30T09:52:13;21.90;99.90
21149;DHT22;10732;51.472;6.466;2023-09-30T09:54:42;21.60;99.90
21149;DHT22;10732;51.472;6.466;2023-09-30T09:57:10;21.20;1.00
21149;DHT22;10732;51.472;6.466;2023-09-30T09:59:36;20.90;14.70
21149;DHT22;10732;51.472;6.466;2023-09-30T10:02:04;20.60;1.00
21149;DHT22;10732;51.472;6.466;2023-09-30T10:04:36;21.10;1.00
21149;DHT22;10732;51.472;6.466;2023-09-30T10:07:04;21.30;1.00
21149;DHT22;10732;51.472;6.466;2023-09-30T10:09:34;22.30;1.00
21149;DHT22;10732;51.472;6.466;2023-09-30T10:12:01;23.00;1.00
21149;DHT22;10732;51.472;6.466;2023-09-30T10:14:30;23.60;1.00
21149;DHT22;10732;51.472;6.466;2023-09-30T10:17:01;23.00;9.00
21149;DHT22;10732;51.472;6.466;2023-09-30T10:19:26;22.50;1.00
21149;DHT22;10732;51.472;6.466;2023-09-30T10:24:46;22.20;99.90
21149;DHT22;10732;51.472;6.466;2023-09-30T10:33:08;22.80;1.00
21149;DHT22;10732;51.472;6.466;2023-09-30T10:40:46;23.60;1.00
21149;DHT22;10732;51.472;6.466;2023-09-30T10:43:32;24.40;99.90
21149;DHT22;10732;51.472;6.466;2023-09-30T10:45:57;24.40;99.90
21149;DHT22;10732;51.472;6.466;2023-09-30T10:51:01;23.10;99.90
21149;DHT22;10732;51.472;6.466;2023-09-30T10:53:30;22.40;1.00
21149;DHT22;10732;51.472;6.466;2023-09-30T10:55:59;21.80;99.90
21149;DHT22;10732;51.472;6.466;2023-09-30T10:58:44;21.60;99.90
21149;DHT22;10732;51.472;6.466;2023-09-30T11:01:12;21.40;99.90
21149;DHT22;10732;51.472;6.466;2023-09-30T11:03:39;21.40;98.60
21149;DHT22;10732;51.472;6.466;2023-09-30T11:06:04;21.80;99.90
21149;DHT22;10732;51.472;6.466;2023-09-30T11:08:30;22.80;1.00
21149;DHT22;10732;51.472;6.466;2023-09-30T11:10:57;23.00;99.90
21149;DHT22;10732;51.472;6.466;2023-09-30T11:13:31;22.80;1.00
21149;DHT22;10732;51.472;6.466;2023-09-30T11:16:03;22.40;1.00
21149;DHT22;10732;51.472;6.466;2023-09-30T11:18:31;22.70;1.00
21149;DHT22;10732;51.472;6.466;2023-09-30T11:21:10;23.30;99.90
21149;DHT22;10732;51.472;6.466;2023-09-30T11:23:38;23.40;1.00
21149;DHT22;10732;51.472;6.466;2023-09-30T11:26:05;22.30;1.00
21149;DHT22;10732;51.472;6.466;2023-09-30T11:28:39;21.60;47.90
21149;DHT22;10732;51.472;6.466;2023-09-30T11:31:08;22.50;1.00
21149;DHT22;10732;51.472;6.466;2023-09-30T11:33:50;23.20;99.90
21149;DHT22;10732;51.472;6.466;2023-09-30T11:36:21;22.70;99.90
21149;DHT22;10732;51.472;6.466;2023-09-30T11:38:51;22.60;1.00
21149;DHT22;10732;51.472;6.466;2023-09-30T11:41:18;23.50;99.90
21149;DHT22;10732;51.472;6.466;2023-09-30T11:44:05;23.90;99.90
21149;DHT22;10732;51.472;6.466;2023-09-30T11:46:31;23.40;67.50
21149;DHT22;10732;51.472;6.466;2023-09-30T11:49:03;23.00;99.90
21149;DHT22;10732;51.472;6.466;2023-09-30T11:51:34;22.20;1.00
21149;DHT22;10732;51.472;6.466;2023-09-30T11:54:08;22.10;99.90
21149;DHT22;10732;51.472;6.466;2023-09-30T11:56:34;21.90;99.90
21149;DHT22;10732;51.472;6.466;2023-09-30T11:58:59;22.30;99.90
21149;DHT22;10732;51.472;6.466;2023-09-30T12:01:25;22.40;99.90
21149;DHT22;10732;51.472;6.466;2023-09-30T12:03:51;22.50;99.90
21149;DHT22;10732;51.472;6.466;2023-09-30T12:06:17;22.70;99.90
21149;DHT22;10732;51.472;6.466;2023-09-30T12:08:43;23.00;99.90
21149;DHT22;10732;51.472;6.466;2023-09-30T12:11:09;23.10;1.00
21149;DHT22;10732;51.472;6.466;2023-09-30T12:13:38;22.40;1.00
21149;DHT22;10732;51.472;6.466;2023-09-30T12:16:04;22.00;42.60
21149;DHT22;10732;51.472;6.466;2023-09-30T12:18:30;21.80;1.00
21149;DHT22;10732;51.472;6.466;2023-09-30T12:20:56;21.40;99.90
21149;DHT22;10732;51.472;6.466;2023-09-30T12:23:21;21.30;1.00
21149;DHT22;10732;51.472;6.466;2023-09-30T12:25:47;21.50;99.90
21149;DHT22;10732;51.472;6.466;2023-09-30T12:28:13;21.90;99.90
21149;DHT22;10732;51.472;6.466;2023-09-30T12:30:43;21.80;99.90
21149;DHT22;10732;51.472;6.466;2023-09-30T12:33:08;21.10;99.90
21149;DHT22;10732;51.472;6.466;2023-09-30T12:35:35;21.50;99.90
21149;DHT22;10732;51.472;6.466;2023-09-30T12:38:00;21.00;1.00
21149;DHT22;10732;51.472;6.466;2023-09-30T12:40:26;21.30;1.00
21149;DHT22;10732;51.472;6.466;2023-09-30T12:42:53;21.50;1.00
21149;DHT22;10732;51.472;6.466;2023-09-30T12:45:19;21.30;1.00
21149;DHT22;10732;51.472;6.466;2023-09-30T12:47:44;21.30;1.00
21149;DHT22;10732;51.472;6.466;2023-09-30T12:50:12;21.50;1.00
21149;DHT22;10732;51.472;6.466;2023-09-30T12:52:38;21.40;99.90
21149;DHT22;10732;51.472;6.466;2023-09-30T12:55:04;21.00;1.00
21149;DHT22;10732;51.472;6.466;2023-09-30T12:57:30;21.00;1.00
21149;DHT22;10732;51.472;6.466;2023-09-30T12:59:56;21.20;1.00
21149;DHT22;10732;51.472;6.466;2023-09-30T13:02:22;21.20;99.90
21149;DHT22;10732;51.472;6.466;2023-09-30T13:04:48;20.80;99.90
21149;DHT22;10732;51.472;6.466;2023-09-30T13:07:14;20.50;99.90
21149;DHT22;10732;51.472;6.466;2023-09-30T13:09:40;20.20;1.00
21149;DHT22;10732;51.472;6.466;2023-09-30T13:12:06;20.60;1.00
21149;DHT22;10732;51.472;6.466;2023-09-30T13:14:32;20.70;99.90
21149;DHT22;10732;51.472;6.466;2023-09-30T13:16:58;20.70;99.90
21149;DHT22;10732;51.472;6.466;2023-09-30T13:19:23;20.90;1.00
21149;DHT22;10732;51.472;6.466;2023-09-30T13:21:50;20.70;99.90
21149;DHT22;10732;51.472;6.466;2023-09-30T13:24:16;20.80;1.00
21149;DHT22;10732;51.472;6.466;2023-09-30T13:26:41;20.70;99.90
21149;DHT22;10732;51.472;6.466;2023-09-30T13:29:07;20.70;99.90
21149;DHT22;10732;51.472;6.466;2023-09-30T13:31:35;20.50;99.90
21149;DHT22;10732;51.472;6.466;2023-09-30T13:34:03;20.40;99.90
21149;DHT22;10732;51.472;6.466;2023-09-30T13:36:29;20.60;99.90
21149;DHT22;10732;51.472;6.466;2023-09-30T13:38:55;20.70;1.00
21149;DHT22;10732;51.472;6.466;2023-09-30T13:41:21;20.80;1.00
21149;DHT22;10732;51.472;6.466;2023-09-30T13:43:47;20.70;1.00
21149;DHT22;10732;51.472;6.466;2023-09-30T13:46:12;20.30;99.90
21149;DHT22;10732;51.472;6.466;2023-09-30T13:48:38;20.10;99.90
21149;DHT22;10732;51.472;6.466;2023-09-30T13:51:13;20.10;1.00
21149;DHT22;10732;51.472;6.466;2023-09-30T13:53:39;20.30;99.90
21149;DHT22;10732;51.472;6.466;2023-09-30T13:56:06;20.40;99.90
21149;DHT22;10732;51.472;6.466;2023-09-30T13:58:32;20.40;99.90
21149;DHT22;10732;51.472;6.466;2023-09-30T14:00:58;20.10;1.00
21149;DHT22;10732;51.472;6.466;2023-09-30T14:03:23;20.10;1.00
21149;DHT22;10732;51.472;6.466;2023-09-30T14:05:50;20.20;1.00
21149;DHT22;10732;51.472;6.466;2023-09-30T14:08:16;20.10;1.00
21149;DHT22;10732;51.472;6.466;2023-09-30T14:10:41;19.80;1.00
21149;DHT22;10732;51.472;6.466;2023-09-30T14:13:08;19.80;1.00
21149;DHT22;10732;51.472;6.466;2023-09-30T14:15:34;20.00;1.00
21149;DHT22;10732;51.472;6.466;2023-09-30T14:17:59;20.20;1.00
21149;DHT22;10732;51.472;6.466;2023-09-30T14:20:25;20.10;1.00
21149;DHT22;10732;51.472;6.466;2023-09-30T14:22:51;20.10;1.00
21149;DHT22;10732;51.472;6.466;2023-09-30T14:25:18;20.20;1.00
21149;DHT22;10732;51.472;6.466;2023-09-30T14:27:43;20.10;99.90
21149;DHT22;10732;51.472;6.466;2023-09-30T14:30:09;19.70;1.00
21149;DHT22;10732;51.472;6.466;2023-09-30T14:32:35;19.50;1.00
21149;DHT22;10732;51.472;6.466;2023-09-30T14:35:01;19.60;1.00
21149;DHT22;10732;51.472;6.466;2023-09-30T14:37:26;19.60;1.00
21149;DHT22;10732;51.472;6.466;2023-09-30T14:39:52;19.40;1.00
21149;DHT22;10732;51.472;6.466;2023-09-30T14:42:18;19.30;1.00
21149;DHT22;10732;51.472;6.466;2023-09-30T14:44:43;19.30;1.00
21149;DHT22;10732;51.472;6.466;2023-09-30T14:47:09;19.20;1.00
21149;DHT22;10732;51.472;6.466;2023-09-30T14:49:34;19.20;1.00
21149;DHT22;10732;51.472;6.466;2023-09-30T14:52:00;19.10;1.00
21149;DHT22;10732;51.472;6.466;2023-09-30T14:54:26;19.20;87.90
21149;DHT22;10732;51.472;6.466;2023-09-30T14:56:52;19.40;25.50
21149;DHT22;10732;51.472;6.466;2023-09-30T14:59:17;19.50;99.90
21149;DHT22;10732;51.472;6.466;2023-09-30T15:01:43;19.50;99.90
21149;DHT22;10732;51.472;6.466;2023-09-30T15:04:09;19.30;1.00
21149;DHT22;10732;51.472;6.466;2023-09-30T15:06:34;19.20;99.90
21149;DHT22;10732;51.472;6.466;2023-09-30T15:09:03;19.20;99.90
21149;DHT22;10732;51.472;6.466;2023-09-30T15:11:29;19.00;52.50
21149;DHT22;10732;51.472;6.466;2023-09-30T15:13:55;19.10;99.90
21149;DHT22;10732;51.472;6.466;2023-09-30T15:16:22;19.00;1.00
21149;DHT22;10732;51.472;6.466;2023-09-30T15:18:49;19.00;99.90
21149;DHT22;10732;51.472;6.466;2023-09-30T15:21:15;19.00;1.00
21149;DHT22;10732;51.472;6.466;2023-09-30T15:23:41;18.80;99.90
21149;DHT22;10732;51.472;6.466;2023-09-30T15:26:07;18.70;99.90
21149;DHT22;10732;51.472;6.466;2023-09-30T15:28:32;18.50;99.90
21149;DHT22;10732;51.472;6.466;2023-09-30T15:30:58;18.70;1.00
21149;DHT22;10732;51.472;6.466;2023-09-30T15:33:24;18.80;1.00
21149;DHT22;10732;51.472;6.466;2023-09-30T15:35:50;18.90;1.00
21149;DHT22;10732;51.472;6.466;2023-09-30T15:38:16;18.90;99.90
21149;DHT22;10732;51.472;6.466;2023-09-30T15:40:54;19.00;1.00
21149;DHT22;10732;51.472;6.466;2023-09-30T15:43:23;19.00;1.00
21149;DHT22;10732;51.472;6.466;2023-09-30T15:45:49;19.10;1.00
21149;DHT22;10732;51.472;6.466;2023-09-30T15:48:15;19.10;99.90
21149;DHT22;10732;51.472;6.466;2023-09-30T15:50:42;19.00;1.00